sensor_id;sensor_type;location;lat;lon;timestamp;pressure;altitude;pressure_sealevel;temperature;humidity
76356;BME280;70122;50.822;4.388;2023-05-17T10:01:40;101892.41;;;19.40;45.71
76356;BME280;70122;50.822;4.388;2023-05-17T10:04:08;101891.88;;;19.65;42.36
76356;BME280;70122;50.822;4.388;2023-05-17T10:05:20;101895.25;;;19.57;42.71
76356;BME280;70122;50.822;4.388;2023-05-17T10:06:31;101890.78;;;19.47;44.13
76356;BME280;70122;50.822;4.388;2023-05-17T10:07:45;101885.50;;;19.42;44.28
76356;BME280;70122;50.822;4.388;2023-05-17T10:08:57;101895.00;;;19.39;43.87
76356;BME280;70122;50.822;4.388;2023-05-17T10:10:09;101887.97;;;19.33;44.16
76356;BME280;70122;50.822;4.388;2023-05-17T10:11:29;101889.63;;;19.27;44.49
76356;BME280;70122;50.822;4.388;2023-05-17T10:13:05;101918.16;;;19.22;39.94
76356;BME280;70122;50.822;4.388;2023-05-17T10:14:53;101871.06;;;17.58;39.38
76356;BME280;70122;50.822;4.388;2023-05-17T10:16:27;101862.72;;;16.59;41.61
76356;BME280;70122;50.822;4.388;2023-05-17T10:17:42;101857.50;;;16.56;41.19
76356;BME280;70122;50.822;4.388;2023-05-17T10:20:31;101859.97;;;17.26;41.23
76356;BME280;70122;50.822;4.388;2023-05-17T10:21:43;101860.84;;;17.25;40.18
76356;BME280;70122;50.822;4.388;2023-05-17T10:22:59;101846.84;;;17.19;40.70
76356;BME280;70122;50.822;4.388;2023-05-17T10:24:24;101865.78;;;17.16;41.12
76356;BME280;70122;50.822;4.388;2023-05-17T10:27:35;101853.06;;;16.88;40.48
76356;BME280;70122;50.822;4.388;2023-05-17T10:28:47;101865.41;;;16.62;41.15
76356;BME280;70122;50.822;4.388;2023-05-17T10:30:06;101866.38;;;16.66;41.38
76356;BME280;70122;50.822;4.388;2023-05-17T10:31:21;101864.63;;;16.65;41.02
76356;BME280;70122;50.822;4.388;2023-05-17T10:32:35;101845.56;;;16.63;40.84
76356;BME280;70122;50.822;4.388;2023-05-17T10:33:51;101867.66;;;16.84;41.07
76356;BME280;70122;50.822;4.388;2023-05-17T10:35:12;101848.53;;;16.44;40.97
76356;BME280;70122;50.822;4.388;2023-05-17T10:36:25;101862.06;;;16.01;42.46
76356;BME280;70122;50.822;4.388;2023-05-17T10:37:40;101867.94;;;15.95;42.56
76356;BME280;70122;50.822;4.388;2023-05-17T10:38:54;101862.63;;;15.89;42.39
76356;BME280;70122;50.822;4.388;2023-05-17T10:40:06;101868.69;;;15.91;41.38
76356;BME280;70122;50.822;4.388;2023-05-17T10:41:33;101855.97;;;15.68;42.03
76356;BME280;70122;50.822;4.388;2023-05-17T10:42:49;101858.66;;;16.35;41.46
76356;BME280;70122;50.822;4.388;2023-05-17T10:44:03;101858.56;;;16.32;40.66
76356;BME280;70122;50.822;4.388;2023-05-17T10:45:23;101848.19;;;16.64;41.69
76356;BME280;70122;50.822;4.388;2023-05-17T10:46:35;101859.13;;;16.53;39.24
76356;BME280;70122;50.822;4.388;2023-05-17T10:47:46;101850.81;;;16.66;39.29
76356;BME280;70122;50.822;4.388;2023-05-17T10:49:00;101860.50;;;17.10;37.50
76356;BME280;70122;50.822;4.388;2023-05-17T10:50:12;101847.66;;;16.79;36.61
76356;BME280;70122;50.822;4.388;2023-05-17T10:51:35;101845.78;;;16.72;37.97
76356;BME280;70122;50.822;4.388;2023-05-17T10:52:52;101843.78;;;16.97;37.16
76356;BME280;70122;50.822;4.388;2023-05-17T10:54:12;101865.56;;;16.68;37.75
76356;BME280;70122;50.822;4.388;2023-05-17T10:55:50;101859.59;;;16.38;39.29
76356;BME280;70122;50.822;4.388;2023-05-17T10:57:06;101847.56;;;16.74;37.89
76356;BME280;70122;50.822;4.388;2023-05-17T10:58:19;101850.50;;;17.28;35.85
76356;BME280;70122;50.822;4.388;2023-05-17T10:59:30;101848.56;;;17.57;36.04
76356;BME280;70122;50.822;4.388;2023-05-17T11:00:44;101837.69;;;17.34;36.35
76356;BME280;70122;50.822;4.388;2023-05-17T11:02:05;101830.97;;;17.44;36.06
76356;BME280;70122;50.822;4.388;2023-05-17T11:03:30;101852.44;;;16.61;37.58
76356;BME280;70122;50.822;4.388;2023-05-17T11:04:48;101837.25;;;17.53;37.15
76356;BME280;70122;50.822;4.388;2023-05-17T11:06:18;101841.28;;;17.42;36.04
76356;BME280;70122;50.822;4.388;2023-05-17T11:07:35;101862.09;;;17.05;36.29
76356;BME280;70122;50.822;4.388;2023-05-17T11:09:13;101842.59;;;17.22;36.14
76356;BME280;70122;50.822;4.388;2023-05-17T11:10:28;101849.91;;;17.01;36.16
76356;BME280;70122;50.822;4.388;2023-05-17T11:12:06;101840.56;;;16.70;36.44
76356;BME280;70122;50.822;4.388;2023-05-17T11:13:24;101838.56;;;16.59;36.49
76356;BME280;70122;50.822;4.388;2023-05-17T11:14:52;101842.06;;;16.98;36.59
76356;BME280;70122;50.822;4.388;2023-05-17T11:16:05;101848.38;;;17.09;36.38
76356;BME280;70122;50.822;4.388;2023-05-17T11:17:26;101839.19;;;16.86;36.97
76356;BME280;70122;50.822;4.388;2023-05-17T11:18:50;101855.28;;;16.73;36.77
76356;BME280;70122;50.822;4.388;2023-05-17T11:20:02;101841.56;;;17.14;36.31
76356;BME280;70122;50.822;4.388;2023-05-17T11:21:21;101819.59;;;17.80;35.45
76356;BME280;70122;50.822;4.388;2023-05-17T11:22:41;101836.81;;;17.75;34.12
76356;BME280;70122;50.822;4.388;2023-05-17T11:23:54;101831.72;;;17.38;34.47
76356;BME280;70122;50.822;4.388;2023-05-17T11:25:11;101817.56;;;17.23;34.83
76356;BME280;70122;50.822;4.388;2023-05-17T11:26:34;101817.06;;;17.83;34.51
76356;BME280;70122;50.822;4.388;2023-05-17T11:27:48;101841.88;;;17.29;35.53
76356;BME280;70122;50.822;4.388;2023-05-17T11:29:10;101824.13;;;17.07;35.78
76356;BME280;70122;50.822;4.388;2023-05-17T11:30:28;101818.78;;;17.81;34.34
76356;BME280;70122;50.822;4.388;2023-05-17T11:31:50;101839.63;;;17.87;34.67
76356;BME280;70122;50.822;4.388;2023-05-17T11:33:03;101831.41;;;17.65;35.40
76356;BME280;70122;50.822;4.388;2023-05-17T11:34:17;101843.69;;;17.33;34.85
76356;BME280;70122;50.822;4.388;2023-05-17T11:35:32;101842.09;;;17.38;35.25
76356;BME280;70122;50.822;4.388;2023-05-17T11:36:54;101829.94;;;17.77;34.72
76356;BME280;70122;50.822;4.388;2023-05-17T11:39:24;101828.00;;;17.27;34.34
76356;BME280;70122;50.822;4.388;2023-05-17T11:40:37;101832.09;;;17.56;34.83
76356;BME280;70122;50.822;4.388;2023-05-17T11:41:50;101827.63;;;17.48;34.59
76356;BME280;70122;50.822;4.388;2023-05-17T11:43:12;101850.13;;;17.49;34.56
76356;BME280;70122;50.822;4.388;2023-05-17T11:44:31;101836.69;;;17.29;34.69
76356;BME280;70122;50.822;4.388;2023-05-17T11:45:49;101820.50;;;17.82;34.42
76356;BME280;70122;50.822;4.388;2023-05-17T11:47:07;101826.97;;;17.59;34.77
76356;BME280;70122;50.822;4.388;2023-05-17T11:48:20;101811.47;;;17.62;34.69
76356;BME280;70122;50.822;4.388;2023-05-17T11:49:35;101817.28;;;17.95;35.24
76356;BME280;70122;50.822;4.388;2023-05-17T11:50:48;101816.50;;;17.99;34.25
76356;BME280;70122;50.822;4.388;2023-05-17T11:51:59;101816.59;;;18.06;34.17
76356;BME280;70122;50.822;4.388;2023-05-17T11:53:11;101823.88;;;18.25;33.98
76356;BME280;70122;50.822;4.388;2023-05-17T11:54:23;101816.34;;;17.90;34.30
76356;BME280;70122;50.822;4.388;2023-05-17T11:55:45;101808.31;;;17.37;35.24
76356;BME280;70122;50.822;4.388;2023-05-17T11:56:58;101804.72;;;17.70;34.94
76356;BME280;70122;50.822;4.388;2023-05-17T11:58:11;101813.81;;;17.95;34.70
76356;BME280;70122;50.822;4.388;2023-05-17T11:59:26;101807.81;;;17.51;35.84
76356;BME280;70122;50.822;4.388;2023-05-17T12:00:37;101805.59;;;17.72;35.31
76356;BME280;70122;50.822;4.388;2023-05-17T12:01:51;101809.50;;;17.49;35.19
76356;BME280;70122;50.822;4.388;2023-05-17T12:03:19;101816.75;;;17.67;34.90
76356;BME280;70122;50.822;4.388;2023-05-17T12:04:34;101813.44;;;17.32;34.56
76356;BME280;70122;50.822;4.388;2023-05-17T12:05:49;101814.69;;;17.49;35.00
76356;BME280;70122;50.822;4.388;2023-05-17T12:07:00;101814.66;;;17.48;35.19
76356;BME280;70122;50.822;4.388;2023-05-17T12:08:11;101820.75;;;17.96;34.45
76356;BME280;70122;50.822;4.388;2023-05-17T12:09:22;101814.06;;;18.09;33.64
76356;BME280;70122;50.822;4.388;2023-05-17T12:10:34;101821.53;;;18.40;33.84
76356;BME280;70122;50.822;4.388;2023-05-17T12:11:45;101809.25;;;18.31;33.75
76356;BME280;70122;50.822;4.388;2023-05-17T12:12:57;101816.47;;;18.46;32.91
76356;BME280;70122;50.822;4.388;2023-05-17T12:14:09;101818.84;;;17.86;33.69
76356;BME280;70122;50.822;4.388;2023-05-17T12:15:38;101789.34;;;17.81;33.94
76356;BME280;70122;50.822;4.388;2023-05-17T12:16:53;101818.59;;;18.20;34.03
76356;BME280;70122;50.822;4.388;2023-05-17T12:18:05;101796.13;;;17.74;34.42
76356;BME280;70122;50.822;4.388;2023-05-17T12:19:21;101800.75;;;17.90;34.35
76356;BME280;70122;50.822;4.388;2023-05-17T12:20:36;101807.56;;;18.35;34.05
76356;BME280;70122;50.822;4.388;2023-05-17T12:21:49;101796.50;;;17.95;33.80
76356;BME280;70122;50.822;4.388;2023-05-17T12:23:00;101796.97;;;17.72;34.78
76356;BME280;70122;50.822;4.388;2023-05-17T12:24:12;101815.13;;;17.32;35.60
76356;BME280;70122;50.822;4.388;2023-05-17T12:25:23;101805.91;;;17.02;36.01
76356;BME280;70122;50.822;4.388;2023-05-17T12:26:51;101809.97;;;17.33;35.60
76356;BME280;70122;50.822;4.388;2023-05-17T12:28:16;101812.38;;;17.24;36.06
76356;BME280;70122;50.822;4.388;2023-05-17T12:29:32;101809.91;;;16.90;36.12
76356;BME280;70122;50.822;4.388;2023-05-17T12:30:43;101804.28;;;17.09;36.16
76356;BME280;70122;50.822;4.388;2023-05-17T12:32:11;101808.59;;;17.49;35.07
76356;BME280;70122;50.822;4.388;2023-05-17T12:33:23;101803.13;;;17.37;35.24
76356;BME280;70122;50.822;4.388;2023-05-17T12:35:14;101801.88;;;17.58;34.82
76356;BME280;70122;50.822;4.388;2023-05-17T12:36:29;101794.22;;;17.64;34.66
76356;BME280;70122;50.822;4.388;2023-05-17T12:37:41;101796.66;;;17.17;35.09
76356;BME280;70122;50.822;4.388;2023-05-17T12:38:52;101810.56;;;16.80;36.25
76356;BME280;70122;50.822;4.388;2023-05-17T12:40:06;101816.88;;;16.91;36.35
76356;BME280;70122;50.822;4.388;2023-05-17T12:41:22;101814.53;;;17.04;36.16
76356;BME280;70122;50.822;4.388;2023-05-17T12:44:48;101801.59;;;17.46;35.29
76356;BME280;70122;50.822;4.388;2023-05-17T12:46:18;101796.31;;;17.83;34.81
76356;BME280;70122;50.822;4.388;2023-05-17T12:47:41;101786.84;;;17.87;34.40
76356;BME280;70122;50.822;4.388;2023-05-17T12:49:12;101797.13;;;17.39;35.41
76356;BME280;70122;50.822;4.388;2023-05-17T12:50:29;101790.88;;;17.30;35.56
76356;BME280;70122;50.822;4.388;2023-05-17T12:52:09;101788.41;;;17.34;34.63
76356;BME280;70122;50.822;4.388;2023-05-17T12:53:23;101811.56;;;16.86;35.42
76356;BME280;70122;50.822;4.388;2023-05-17T12:54:38;101796.78;;;16.82;35.67
76356;BME280;70122;50.822;4.388;2023-05-17T12:55:55;101784.50;;;17.54;34.89
76356;BME280;70122;50.822;4.388;2023-05-17T12:57:12;101799.44;;;18.14;34.01
76356;BME280;70122;50.822;4.388;2023-05-17T12:58:28;101773.34;;;17.58;34.53
76356;BME280;70122;50.822;4.388;2023-05-17T12:59:52;101790.22;;;18.31;33.59
76356;BME280;70122;50.822;4.388;2023-05-17T13:01:03;101782.81;;;18.53;32.72
76356;BME280;70122;50.822;4.388;2023-05-17T13:02:20;101788.31;;;18.21;33.76
76356;BME280;70122;50.822;4.388;2023-05-17T13:03:32;101783.06;;;17.70;34.43
76356;BME280;70122;50.822;4.388;2023-05-17T13:04:43;101790.84;;;17.27;35.46
76356;BME280;70122;50.822;4.388;2023-05-17T13:06:13;101802.13;;;17.29;35.98
76356;BME280;70122;50.822;4.388;2023-05-17T13:07:25;101801.25;;;17.30;35.09
76356;BME280;70122;50.822;4.388;2023-05-17T13:08:38;101797.06;;;16.94;35.97
76356;BME280;70122;50.822;4.388;2023-05-17T13:09:49;101797.03;;;16.56;36.31
76356;BME280;70122;50.822;4.388;2023-05-17T13:11:12;101785.31;;;16.36;37.25
76356;BME280;70122;50.822;4.388;2023-05-17T13:12:24;101797.94;;;16.95;35.82
76356;BME280;70122;50.822;4.388;2023-05-17T13:13:37;101802.31;;;17.39;34.33
76356;BME280;70122;50.822;4.388;2023-05-17T13:14:52;101775.50;;;16.97;34.94
76356;BME280;70122;50.822;4.388;2023-05-17T13:16:04;101803.75;;;17.65;34.37
76356;BME280;70122;50.822;4.388;2023-05-17T13:17:18;101784.66;;;17.63;34.25
76356;BME280;70122;50.822;4.388;2023-05-17T13:18:50;101781.06;;;18.03;33.43
76356;BME280;70122;50.822;4.388;2023-05-17T13:20:09;101776.38;;;18.35;33.17
76356;BME280;70122;50.822;4.388;2023-05-17T13:21:20;101794.13;;;18.57;33.24
76356;BME280;70122;50.822;4.388;2023-05-17T13:22:31;101793.22;;;18.04;33.77
76356;BME280;70122;50.822;4.388;2023-05-17T13:23:44;101793.25;;;18.07;33.62
76356;BME280;70122;50.822;4.388;2023-05-17T13:25:10;101770.28;;;17.80;34.56
76356;BME280;70122;50.822;4.388;2023-05-17T13:27:55;101792.84;;;17.84;34.69
76356;BME280;70122;50.822;4.388;2023-05-17T13:29:07;101778.69;;;17.24;34.64
76356;BME280;70122;50.822;4.388;2023-05-17T13:30:18;101788.00;;;17.16;35.49
76356;BME280;70122;50.822;4.388;2023-05-17T13:31:29;101785.06;;;17.41;34.43
76356;BME280;70122;50.822;4.388;2023-05-17T13:32:40;101791.53;;;17.60;34.07
76356;BME280;70122;50.822;4.388;2023-05-17T13:33:52;101780.38;;;18.13;33.42
76356;BME280;70122;50.822;4.388;2023-05-17T13:35:09;101778.97;;;18.33;33.46
76356;BME280;70122;50.822;4.388;2023-05-17T13:36:20;101779.88;;;17.41;33.74
76356;BME280;70122;50.822;4.388;2023-05-17T13:37:31;101784.66;;;17.22;33.68
76356;BME280;70122;50.822;4.388;2023-05-17T13:38:45;101790.72;;;17.62;33.47
76356;BME280;70122;50.822;4.388;2023-05-17T13:40:07;101778.66;;;17.23;33.64
76356;BME280;70122;50.822;4.388;2023-05-17T13:41:19;101789.16;;;16.88;35.44
76356;BME280;70122;50.822;4.388;2023-05-17T13:45:03;101776.88;;;18.10;33.07
76356;BME280;70122;50.822;4.388;2023-05-17T13:46:31;101776.00;;;18.11;32.94
76356;BME280;70122;50.822;4.388;2023-05-17T13:47:47;101781.22;;;18.12;33.35
76356;BME280;70122;50.822;4.388;2023-05-17T13:48:58;101773.75;;;17.36;33.50
76356;BME280;70122;50.822;4.388;2023-05-17T13:50:48;101768.44;;;17.30;34.01
76356;BME280;70122;50.822;4.388;2023-05-17T13:52:00;101770.91;;;17.24;34.01
76356;BME280;70122;50.822;4.388;2023-05-17T13:53:11;101782.34;;;17.34;34.22
76356;BME280;70122;50.822;4.388;2023-05-17T13:54:23;101781.44;;;17.76;33.66
76356;BME280;70122;50.822;4.388;2023-05-17T13:55:54;101765.38;;;17.97;32.94
76356;BME280;70122;50.822;4.388;2023-05-17T13:57:05;101778.56;;;18.09;33.14
76356;BME280;70122;50.822;4.388;2023-05-17T13:58:23;101778.53;;;18.06;33.11
76356;BME280;70122;50.822;4.388;2023-05-17T13:59:34;101767.94;;;17.94;33.80
76356;BME280;70122;50.822;4.388;2023-05-17T14:01:12;101771.25;;;18.38;33.33
76356;BME280;70122;50.822;4.388;2023-05-17T14:02:28;101745.06;;;18.79;32.49
76356;BME280;70122;50.822;4.388;2023-05-17T14:03:57;101769.84;;;19.19;32.28
76356;BME280;70122;50.822;4.388;2023-05-17T14:05:10;101758.03;;;19.45;31.95
76356;BME280;70122;50.822;4.388;2023-05-17T14:06:27;101767.09;;;19.10;32.23
76356;BME280;70122;50.822;4.388;2023-05-17T14:07:43;101765.19;;;18.94;32.66
76356;BME280;70122;50.822;4.388;2023-05-17T14:09:01;101781.97;;;18.56;33.11
76356;BME280;70122;50.822;4.388;2023-05-17T14:10:16;101762.22;;;18.13;33.52
76356;BME280;70122;50.822;4.388;2023-05-17T14:11:30;101777.28;;;18.35;33.51
76356;BME280;70122;50.822;4.388;2023-05-17T14:12:49;101775.16;;;18.12;33.05
76356;BME280;70122;50.822;4.388;2023-05-17T14:14:18;101769.19;;;18.16;33.02
76356;BME280;70122;50.822;4.388;2023-05-17T14:15:32;101760.50;;;18.14;32.69
76356;BME280;70122;50.822;4.388;2023-05-17T14:20:26;101763.16;;;18.72;32.45
76356;BME280;70122;50.822;4.388;2023-05-17T14:21:37;101762.16;;;18.64;33.14
76356;BME280;70122;50.822;4.388;2023-05-17T14:22:52;101766.34;;;18.53;33.16
76356;BME280;70122;50.822;4.388;2023-05-17T14:24:23;101761.44;;;18.19;34.21
76356;BME280;70122;50.822;4.388;2023-05-17T14:25:34;101778.31;;;17.94;34.30
76356;BME280;70122;50.822;4.388;2023-05-17T14:26:46;101769.13;;;17.65;34.76
76356;BME280;70122;50.822;4.388;2023-05-17T14:27:57;101771.50;;;17.53;35.11
76356;BME280;70122;50.822;4.388;2023-05-17T14:29:08;101783.88;;;17.66;34.46
76356;BME280;70122;50.822;4.388;2023-05-17T14:30:28;101782.69;;;17.96;33.52
76356;BME280;70122;50.822;4.388;2023-05-17T14:31:42;101787.56;;;18.83;32.41
76356;BME280;70122;50.822;4.388;2023-05-17T14:32:56;101767.97;;;18.48;32.39
76356;BME280;70122;50.822;4.388;2023-05-17T14:34:36;101776.75;;;18.54;32.47
76356;BME280;70122;50.822;4.388;2023-05-17T14:35:47;101763.09;;;18.14;32.88
76356;BME280;70122;50.822;4.388;2023-05-17T14:37:35;101776.75;;;18.56;32.61
76356;BME280;70122;50.822;4.388;2023-05-17T14:38:52;101773.72;;;18.85;32.27
76356;BME280;70122;50.822;4.388;2023-05-17T14:40:22;101772.38;;;19.13;31.93
76356;BME280;70122;50.822;4.388;2023-05-17T14:41:39;101765.34;;;18.45;32.56
76356;BME280;70122;50.822;4.388;2023-05-17T14:42:53;101766.44;;;18.59;32.19
76356;BME280;70122;50.822;4.388;2023-05-17T14:44:05;101759.94;;;18.91;32.19
76356;BME280;70122;50.822;4.388;2023-05-17T14:45:16;101752.16;;;18.92;31.78
76356;BME280;70122;50.822;4.388;2023-05-17T14:46:27;101753.00;;;19.60;31.57
76356;BME280;70122;50.822;4.388;2023-05-17T14:47:46;101770.91;;;19.33;31.15
76356;BME280;70122;50.822;4.388;2023-05-17T14:48:57;101769.66;;;19.06;30.80
76356;BME280;70122;50.822;4.388;2023-05-17T14:50:14;101775.81;;;19.12;31.57
76356;BME280;70122;50.822;4.388;2023-05-17T14:51:26;101760.50;;;18.69;32.72
76356;BME280;70122;50.822;4.388;2023-05-17T14:52:37;101755.50;;;18.85;32.42
76356;BME280;70122;50.822;4.388;2023-05-17T14:53:57;101765.91;;;18.84;31.97
76356;BME280;70122;50.822;4.388;2023-05-17T14:55:13;101761.63;;;18.31;32.09
76356;BME280;70122;50.822;4.388;2023-05-17T14:56:26;101760.03;;;18.40;32.14
76356;BME280;70122;50.822;4.388;2023-05-17T14:57:41;101765.06;;;18.83;31.66
76356;BME280;70122;50.822;4.388;2023-05-17T14:58:52;101762.19;;;18.12;32.41
76356;BME280;70122;50.822;4.388;2023-05-17T15:00:30;101757.94;;;18.18;33.12
76356;BME280;70122;50.822;4.388;2023-05-17T15:01:41;101770.38;;;18.37;33.02
76356;BME280;70122;50.822;4.388;2023-05-17T15:02:53;101753.94;;;18.97;32.20
76356;BME280;70122;50.822;4.388;2023-05-17T15:04:04;101748.50;;;18.80;32.41
76356;BME280;70122;50.822;4.388;2023-05-17T15:05:19;101765.78;;;18.75;32.86
76356;BME280;70122;50.822;4.388;2023-05-17T15:06:30;101761.34;;;18.68;33.14
76356;BME280;70122;50.822;4.388;2023-05-17T15:07:42;101760.78;;;18.32;33.27
76356;BME280;70122;50.822;4.388;2023-05-17T15:08:53;101749.09;;;17.56;34.38
76356;BME280;70122;50.822;4.388;2023-05-17T15:10:05;101755.91;;;17.51;34.25
76356;BME280;70122;50.822;4.388;2023-05-17T15:11:16;101763.75;;;17.54;34.42
76356;BME280;70122;50.822;4.388;2023-05-17T15:12:31;101758.06;;;17.75;34.40
76356;BME280;70122;50.822;4.388;2023-05-17T15:13:42;101769.97;;;17.62;34.59
76356;BME280;70122;50.822;4.388;2023-05-17T15:14:53;101762.38;;;17.74;34.04
76356;BME280;70122;50.822;4.388;2023-05-17T15:16:06;101772.59;;;17.65;33.72
76356;BME280;70122;50.822;4.388;2023-05-17T15:17:29;101773.78;;;18.35;32.83
76356;BME280;70122;50.822;4.388;2023-05-17T15:18:41;101754.28;;;18.04;32.54
76356;BME280;70122;50.822;4.388;2023-05-17T15:19:53;101757.94;;;17.67;33.24
76356;BME280;70122;50.822;4.388;2023-05-17T15:21:06;101749.41;;;17.31;33.70
76356;BME280;70122;50.822;4.388;2023-05-17T15:22:26;101753.06;;;17.41;34.13
76356;BME280;70122;50.822;4.388;2023-05-17T15:24:01;101760.19;;;17.97;33.67
76356;BME280;70122;50.822;4.388;2023-05-17T15:25:12;101733.06;;;18.31;33.19
76356;BME280;70122;50.822;4.388;2023-05-17T15:26:23;101740.50;;;18.10;33.21
76356;BME280;70122;50.822;4.388;2023-05-17T15:27:34;101751.00;;;18.16;32.81
76356;BME280;70122;50.822;4.388;2023-05-17T15:28:46;101763.66;;;17.97;32.06
76356;BME280;70122;50.822;4.388;2023-05-17T15:31:30;101759.09;;;17.38;34.18
76356;BME280;70122;50.822;4.388;2023-05-17T15:32:41;101747.81;;;17.36;33.47
76356;BME280;70122;50.822;4.388;2023-05-17T15:33:52;101746.03;;;17.35;34.31
76356;BME280;70122;50.822;4.388;2023-05-17T15:35:04;101759.91;;;17.80;34.11
76356;BME280;70122;50.822;4.388;2023-05-17T15:36:16;101747.75;;;17.78;33.95
76356;BME280;70122;50.822;4.388;2023-05-17T15:37:27;101755.63;;;17.84;34.45
76356;BME280;70122;50.822;4.388;2023-05-17T15:38:38;101765.69;;;17.64;34.22
76356;BME280;70122;50.822;4.388;2023-05-17T15:39:49;101761.44;;;17.71;33.83
76356;BME280;70122;50.822;4.388;2023-05-17T15:41:05;101766.34;;;17.54;33.70
76356;BME280;70122;50.822;4.388;2023-05-17T15:42:16;101771.47;;;17.51;34.01
76356;BME280;70122;50.822;4.388;2023-05-17T15:43:27;101773.78;;;17.82;33.86
76356;BME280;70122;50.822;4.388;2023-05-17T15:44:38;101768.72;;;17.44;34.74
76356;BME280;70122;50.822;4.388;2023-05-17T15:45:50;101759.56;;;17.61;34.93
76356;BME280;70122;50.822;4.388;2023-05-17T15:47:01;101765.19;;;17.85;34.11
76356;BME280;70122;50.822;4.388;2023-05-17T15:48:12;101755.31;;;17.66;34.14
76356;BME280;70122;50.822;4.388;2023-05-17T15:49:24;101772.00;;;17.80;34.39
76356;BME280;70122;50.822;4.388;2023-05-17T15:50:35;101757.44;;;17.43;35.04
76356;BME280;70122;50.822;4.388;2023-05-17T15:51:47;101758.03;;;17.29;35.43
76356;BME280;70122;50.822;4.388;2023-05-17T15:52:58;101772.97;;;17.40;35.55
76356;BME280;70122;50.822;4.388;2023-05-17T15:54:09;101763.38;;;17.36;35.82
76356;BME280;70122;50.822;4.388;2023-05-17T15:55:20;101778.09;;;17.39;35.65
76356;BME280;70122;50.822;4.388;2023-05-17T15:56:31;101756.50;;;17.38;36.01
76356;BME280;70122;50.822;4.388;2023-05-17T15:57:42;101773.63;;;17.30;35.38
76356;BME280;70122;50.822;4.388;2023-05-17T15:58:54;101775.78;;;17.49;35.84
76356;BME280;70122;50.822;4.388;2023-05-17T16:00:05;101766.00;;;16.97;36.33
76356;BME280;70122;50.822;4.388;2023-05-17T16:01:17;101768.59;;;16.96;36.25
76356;BME280;70122;50.822;4.388;2023-05-17T16:02:32;101765.75;;;17.27;36.16
76356;BME280;70122;50.822;4.388;2023-05-17T16:03:46;101754.22;;;17.12;35.55
76356;BME280;70122;50.822;4.388;2023-05-17T16:05:00;101787.88;;;16.70;36.49
76356;BME280;70122;50.822;4.388;2023-05-17T16:06:11;101769.31;;;16.52;36.99
76356;BME280;70122;50.822;4.388;2023-05-17T16:07:23;101791.28;;;16.69;36.37
76356;BME280;70122;50.822;4.388;2023-05-17T16:08:36;101777.09;;;16.90;36.42
76356;BME280;70122;50.822;4.388;2023-05-17T16:09:47;101774.81;;;17.04;35.54
76356;BME280;70122;50.822;4.388;2023-05-17T16:10:58;101778.72;;;16.85;35.89
76356;BME280;70122;50.822;4.388;2023-05-17T16:12:09;101759.50;;;17.16;35.69
76356;BME280;70122;50.822;4.388;2023-05-17T16:13:20;101773.63;;;16.90;36.12
76356;BME280;70122;50.822;4.388;2023-05-17T16:14:31;101768.25;;;16.81;36.43
76356;BME280;70122;50.822;4.388;2023-05-17T16:15:43;101775.66;;;16.64;36.46
76356;BME280;70122;50.822;4.388;2023-05-17T16:16:54;101775.53;;;16.60;37.57
76356;BME280;70122;50.822;4.388;2023-05-17T16:18:05;101764.59;;;16.73;36.82
76356;BME280;70122;50.822;4.388;2023-05-17T16:19:16;101787.66;;;16.61;37.40
76356;BME280;70122;50.822;4.388;2023-05-17T16:20:28;101786.19;;;16.72;37.21
76356;BME280;70122;50.822;4.388;2023-05-17T16:21:39;101787.16;;;16.77;37.17
76356;BME280;70122;50.822;4.388;2023-05-17T16:22:53;101780.72;;;16.60;37.02
76356;BME280;70122;50.822;4.388;2023-05-17T16:24:04;101774.88;;;16.68;37.38
76356;BME280;70122;50.822;4.388;2023-05-17T16:25:23;101772.63;;;16.83;36.73
76356;BME280;70122;50.822;4.388;2023-05-17T16:26:34;101774.13;;;16.72;36.39
76356;BME280;70122;50.822;4.388;2023-05-17T16:27:48;101775.69;;;16.32;36.72
76356;BME280;70122;50.822;4.388;2023-05-17T16:28:59;101772.22;;;16.31;37.37
76356;BME280;70122;50.822;4.388;2023-05-17T16:30:11;101773.13;;;16.32;37.78
76356;BME280;70122;50.822;4.388;2023-05-17T16:31:22;101771.44;;;15.99;38.21
76356;BME280;70122;50.822;4.388;2023-05-17T16:32:33;101782.72;;;16.01;39.01
76356;BME280;70122;50.822;4.388;2023-05-17T16:33:45;101761.56;;;16.18;38.39
76356;BME280;70122;50.822;4.388;2023-05-17T16:34:56;101763.38;;;16.22;39.00
76356;BME280;70122;50.822;4.388;2023-05-17T16:36:07;101770.16;;;16.17;39.06
76356;BME280;70122;50.822;4.388;2023-05-17T16:37:18;101766.22;;;16.32;38.99
76356;BME280;70122;50.822;4.388;2023-05-17T16:38:29;101754.97;;;16.30;38.38
76356;BME280;70122;50.822;4.388;2023-05-17T16:39:41;101761.09;;;16.35;38.20
76356;BME280;70122;50.822;4.388;2023-05-17T16:40:52;101746.16;;;16.24;38.62
76356;BME280;70122;50.822;4.388;2023-05-17T16:42:03;101767.19;;;16.36;38.29
76356;BME280;70122;50.822;4.388;2023-05-17T16:43:14;101761.03;;;16.31;38.15
76356;BME280;70122;50.822;4.388;2023-05-17T16:44:25;101773.34;;;16.06;38.41
76356;BME280;70122;50.822;4.388;2023-05-17T16:45:37;101758.06;;;16.16;37.71
76356;BME280;70122;50.822;4.388;2023-05-17T16:46:48;101769.81;;;16.39;37.95
76356;BME280;70122;50.822;4.388;2023-05-17T16:47:59;101760.44;;;16.42;37.45
76356;BME280;70122;50.822;4.388;2023-05-17T16:49:11;101761.50;;;16.50;36.61
76356;BME280;70122;50.822;4.388;2023-05-17T16:50:22;101763.31;;;16.19;36.72
76356;BME280;70122;50.822;4.388;2023-05-17T16:51:33;101771.47;;;16.01;36.80
76356;BME280;70122;50.822;4.388;2023-05-17T16:52:47;101781.56;;;15.90;37.40
76356;BME280;70122;50.822;4.388;2023-05-17T16:53:58;101759.03;;;15.86;38.65
76356;BME280;70122;50.822;4.388;2023-05-17T16:55:09;101770.31;;;15.88;38.52